sensor_id;sensor_type;location;lat;lon;timestamp;P1;durP1;ratioP1;P2;durP2;ratioP2
1154;SDS011;566;48.414;9.118;2023-03-01T00:00:39;47.47;;;24.80;;
1154;SDS011;566;48.414;9.118;2023-03-01T00:03:05;44.28;;;24.33;;
1154;SDS011;566;48.414;9.118;2023-03-01T00:05:31;40.08;;;22.30;;
1154;SDS011;566;48.414;9.118;2023-03-01T00:07:57;42.75;;;23.33;;
1154;SDS011;566;48.414;9.118;2023-03-01T00:10:23;45.58;;;24.10;;
1154;SDS011;566;48.414;9.118;2023-03-01T00:12:51;43.20;;;24.95;;
1154;SDS011;566;48.414;9.118;2023-03-01T00:15:20;38.03;;;22.55;;
1154;SDS011;566;48.414;9.118;2023-03-01T00:17:45;49.13;;;25.65;;
1154;SDS011;566;48.414;9.118;2023-03-01T00:20:14;39.85;;;22.77;;
1154;SDS011;566;48.414;9.118;2023-03-01T00:22:39;45.88;;;24.35;;
1154;SDS011;566;48.414;9.118;2023-03-01T00:25:05;46.00;;;25.23;;
1154;SDS011;566;48.414;9.118;2023-03-01T00:27:30;39.13;;;22.98;;
1154;SDS011;566;48.414;9.118;2023-03-01T00:29:59;46.05;;;25.15;;
1154;SDS011;566;48.414;9.118;2023-03-01T00:32:27;40.70;;;22.98;;
1154;SDS011;566;48.414;9.118;2023-03-01T00:34:53;44.00;;;24.33;;
1154;SDS011;566;48.414;9.118;2023-03-01T00:37:24;45.63;;;25.33;;
1154;SDS011;566;48.414;9.118;2023-03-01T00:39:50;44.88;;;24.67;;
1154;SDS011;566;48.414;9.118;2023-03-01T00:42:16;42.70;;;24.77;;
1154;SDS011;566;48.414;9.118;2023-03-01T00:44:41;44.20;;;23.70;;
1154;SDS011;566;48.414;9.118;2023-03-01T00:47:10;44.92;;;26.70;;
1154;SDS011;566;48.414;9.118;2023-03-01T00:49:36;43.05;;;23.50;;
1154;SDS011;566;48.414;9.118;2023-03-01T00:52:01;51.20;;;28.58;;
1154;SDS011;566;48.414;9.118;2023-03-01T00:54:27;47.50;;;25.55;;
1154;SDS011;566;48.414;9.118;2023-03-01T00:56:52;51.03;;;28.45;;
1154;SDS011;566;48.414;9.118;2023-03-01T00:59:21;50.72;;;26.73;;
1154;SDS011;566;48.414;9.118;2023-03-01T01:01:49;43.47;;;24.13;;
1154;SDS011;566;48.414;9.118;2023-03-01T01:04:15;47.50;;;26.38;;
1154;SDS011;566;48.414;9.118;2023-03-01T01:06:41;48.15;;;26.48;;
1154;SDS011;566;48.414;9.118;2023-03-01T01:09:09;43.80;;;24.42;;
1154;SDS011;566;48.414;9.118;2023-03-01T01:11:42;52.03;;;27.63;;
1154;SDS011;566;48.414;9.118;2023-03-01T01:14:12;45.78;;;24.23;;
1154;SDS011;566;48.414;9.118;2023-03-01T01:16:37;50.17;;;27.23;;
1154;SDS011;566;48.414;9.118;2023-03-01T01:19:03;50.10;;;28.02;;
1154;SDS011;566;48.414;9.118;2023-03-01T01:21:28;49.53;;;27.63;;
1154;SDS011;566;48.414;9.118;2023-03-01T01:23:54;46.30;;;26.65;;
1154;SDS011;566;48.414;9.118;2023-03-01T01:26:22;53.63;;;28.83;;
1154;SDS011;566;48.414;9.118;2023-03-01T01:28:50;54.47;;;28.17;;
1154;SDS011;566;48.414;9.118;2023-03-01T01:31:16;48.35;;;26.05;;
1154;SDS011;566;48.414;9.118;2023-03-01T01:33:43;46.47;;;26.15;;
1154;SDS011;566;48.414;9.118;2023-03-01T01:36:09;51.28;;;26.45;;
1154;SDS011;566;48.414;9.118;2023-03-01T01:38:35;52.67;;;27.70;;
1154;SDS011;566;48.414;9.118;2023-03-01T01:41:02;46.20;;;25.80;;
1154;SDS011;566;48.414;9.118;2023-03-01T01:43:39;46.92;;;25.90;;
1154;SDS011;566;48.414;9.118;2023-03-01T01:49:03;44.75;;;24.10;;
1154;SDS011;566;48.414;9.118;2023-03-01T01:51:39;45.30;;;25.48;;
1154;SDS011;566;48.414;9.118;2023-03-01T01:54:10;43.03;;;25.40;;
1154;SDS011;566;48.414;9.118;2023-03-01T01:56:39;42.10;;;24.67;;
1154;SDS011;566;48.414;9.118;2023-03-01T01:59:09;43.17;;;24.70;;
1154;SDS011;566;48.414;9.118;2023-03-01T02:01:36;42.88;;;25.55;;
1154;SDS011;566;48.414;9.118;2023-03-01T02:04:01;41.55;;;24.52;;
1154;SDS011;566;48.414;9.118;2023-03-01T02:06:34;41.28;;;24.50;;
1154;SDS011;566;48.414;9.118;2023-03-01T02:09:11;38.17;;;23.65;;
1154;SDS011;566;48.414;9.118;2023-03-01T02:11:42;43.00;;;25.05;;
1154;SDS011;566;48.414;9.118;2023-03-01T02:14:09;41.13;;;24.48;;
1154;SDS011;566;48.414;9.118;2023-03-01T02:16:35;46.67;;;25.92;;
1154;SDS011;566;48.414;9.118;2023-03-01T02:19:06;42.60;;;25.42;;
1154;SDS011;566;48.414;9.118;2023-03-01T02:24:05;46.85;;;27.48;;
1154;SDS011;566;48.414;9.118;2023-03-01T02:26:45;44.58;;;26.58;;
1154;SDS011;566;48.414;9.118;2023-03-01T02:29:14;42.67;;;25.20;;
1154;SDS011;566;48.414;9.118;2023-03-01T02:31:43;44.55;;;26.90;;
1154;SDS011;566;48.414;9.118;2023-03-01T02:34:13;42.00;;;25.67;;
1154;SDS011;566;48.414;9.118;2023-03-01T02:36:46;45.08;;;27.88;;
1154;SDS011;566;48.414;9.118;2023-03-01T02:39:15;48.83;;;27.67;;
1154;SDS011;566;48.414;9.118;2023-03-01T02:41:52;43.10;;;25.83;;
1154;SDS011;566;48.414;9.118;2023-03-01T02:44:21;45.90;;;27.20;;
1154;SDS011;566;48.414;9.118;2023-03-01T02:46:49;41.50;;;25.13;;
1154;SDS011;566;48.414;9.118;2023-03-01T02:49:35;45.72;;;26.10;;
1154;SDS011;566;48.414;9.118;2023-03-01T02:57:25;41.83;;;25.75;;
1154;SDS011;566;48.414;9.118;2023-03-01T02:59:53;40.42;;;24.70;;
1154;SDS011;566;48.414;9.118;2023-03-01T03:05:00;47.25;;;26.35;;
1154;SDS011;566;48.414;9.118;2023-03-01T03:07:27;40.63;;;25.15;;
1154;SDS011;566;48.414;9.118;2023-03-01T03:09:53;38.33;;;23.45;;
1154;SDS011;566;48.414;9.118;2023-03-01T03:12:18;39.53;;;25.25;;
1154;SDS011;566;48.414;9.118;2023-03-01T03:14:47;43.35;;;26.00;;
1154;SDS011;566;48.414;9.118;2023-03-01T03:17:12;42.03;;;24.38;;
1154;SDS011;566;48.414;9.118;2023-03-01T03:19:41;40.65;;;25.42;;
1154;SDS011;566;48.414;9.118;2023-03-01T03:22:10;41.53;;;26.00;;
1154;SDS011;566;48.414;9.118;2023-03-01T03:24:36;39.42;;;25.08;;
1154;SDS011;566;48.414;9.118;2023-03-01T03:27:02;40.08;;;25.42;;
1154;SDS011;566;48.414;9.118;2023-03-01T03:29:31;40.97;;;25.02;;
1154;SDS011;566;48.414;9.118;2023-03-01T03:31:57;41.53;;;24.98;;
1154;SDS011;566;48.414;9.118;2023-03-01T03:34:23;44.75;;;26.73;;
1154;SDS011;566;48.414;9.118;2023-03-01T03:36:52;45.20;;;25.33;;
1154;SDS011;566;48.414;9.118;2023-03-01T03:39:24;42.63;;;24.75;;
1154;SDS011;566;48.414;9.118;2023-03-01T03:41:53;45.28;;;24.75;;
1154;SDS011;566;48.414;9.118;2023-03-01T03:44:20;40.03;;;24.40;;
1154;SDS011;566;48.414;9.118;2023-03-01T03:46:46;45.15;;;26.98;;
1154;SDS011;566;48.414;9.118;2023-03-01T03:49:11;38.83;;;24.40;;
1154;SDS011;566;48.414;9.118;2023-03-01T03:51:37;42.88;;;25.17;;
1154;SDS011;566;48.414;9.118;2023-03-01T03:54:02;38.88;;;23.95;;
1154;SDS011;566;48.414;9.118;2023-03-01T03:56:28;41.13;;;25.42;;
1154;SDS011;566;48.414;9.118;2023-03-01T03:58:54;41.63;;;25.42;;
1154;SDS011;566;48.414;9.118;2023-03-01T04:01:19;42.03;;;25.80;;
1154;SDS011;566;48.414;9.118;2023-03-01T04:03:45;40.92;;;25.42;;
1154;SDS011;566;48.414;9.118;2023-03-01T04:08:44;39.58;;;24.90;;
1154;SDS011;566;48.414;9.118;2023-03-01T04:11:13;41.03;;;25.00;;
1154;SDS011;566;48.414;9.118;2023-03-01T04:13:54;39.40;;;25.27;;
1154;SDS011;566;48.414;9.118;2023-03-01T04:16:21;46.03;;;26.67;;
1154;SDS011;566;48.414;9.118;2023-03-01T04:18:51;42.72;;;26.02;;
1154;SDS011;566;48.414;9.118;2023-03-01T04:21:21;43.67;;;25.52;;
1154;SDS011;566;48.414;9.118;2023-03-01T04:23:47;39.60;;;25.33;;
1154;SDS011;566;48.414;9.118;2023-03-01T04:26:12;42.95;;;25.85;;
1154;SDS011;566;48.414;9.118;2023-03-01T04:28:41;46.33;;;27.25;;
1154;SDS011;566;48.414;9.118;2023-03-01T04:31:11;46.03;;;28.27;;
1154;SDS011;566;48.414;9.118;2023-03-01T04:33:39;44.30;;;26.65;;
1154;SDS011;566;48.414;9.118;2023-03-01T04:36:06;45.17;;;26.95;;
1154;SDS011;566;48.414;9.118;2023-03-01T04:38:33;54.35;;;31.08;;
1154;SDS011;566;48.414;9.118;2023-03-01T04:40:59;60.53;;;34.80;;
1154;SDS011;566;48.414;9.118;2023-03-01T04:43:25;48.03;;;27.15;;
1154;SDS011;566;48.414;9.118;2023-03-01T04:45:51;46.55;;;28.17;;
1154;SDS011;566;48.414;9.118;2023-03-01T04:48:16;45.38;;;27.33;;
1154;SDS011;566;48.414;9.118;2023-03-01T04:50:42;48.10;;;29.77;;
1154;SDS011;566;48.414;9.118;2023-03-01T04:53:07;48.33;;;27.88;;
1154;SDS011;566;48.414;9.118;2023-03-01T04:55:33;46.15;;;27.55;;
1154;SDS011;566;48.414;9.118;2023-03-01T04:57:58;46.92;;;27.75;;
1154;SDS011;566;48.414;9.118;2023-03-01T05:00:24;53.47;;;30.90;;
1154;SDS011;566;48.414;9.118;2023-03-01T05:05:18;51.30;;;30.20;;
1154;SDS011;566;48.414;9.118;2023-03-01T05:07:48;51.40;;;29.00;;
1154;SDS011;566;48.414;9.118;2023-03-01T05:10:17;54.58;;;32.58;;
1154;SDS011;566;48.414;9.118;2023-03-01T05:12:42;59.75;;;35.72;;
1154;SDS011;566;48.414;9.118;2023-03-01T05:15:08;52.90;;;30.75;;
1154;SDS011;566;48.414;9.118;2023-03-01T05:17:34;51.08;;;29.42;;
1154;SDS011;566;48.414;9.118;2023-03-01T05:20:00;47.47;;;28.88;;
1154;SDS011;566;48.414;9.118;2023-03-01T05:22:25;41.50;;;25.48;;
1154;SDS011;566;48.414;9.118;2023-03-01T05:24:51;47.10;;;26.33;;
1154;SDS011;566;48.414;9.118;2023-03-01T05:27:20;44.83;;;28.00;;
1154;SDS011;566;48.414;9.118;2023-03-01T05:29:47;51.30;;;30.10;;
1154;SDS011;566;48.414;9.118;2023-03-01T05:32:13;51.50;;;29.15;;
1154;SDS011;566;48.414;9.118;2023-03-01T05:34:40;50.40;;;29.08;;
1154;SDS011;566;48.414;9.118;2023-03-01T05:37:06;53.03;;;29.67;;
1154;SDS011;566;48.414;9.118;2023-03-01T05:39:32;42.47;;;27.50;;
1154;SDS011;566;48.414;9.118;2023-03-01T05:41:59;49.42;;;28.30;;
1154;SDS011;566;48.414;9.118;2023-03-01T05:44:26;50.47;;;27.98;;
1154;SDS011;566;48.414;9.118;2023-03-01T05:46:52;45.30;;;27.52;;
1154;SDS011;566;48.414;9.118;2023-03-01T05:49:18;46.55;;;28.35;;
1154;SDS011;566;48.414;9.118;2023-03-01T05:51:51;47.33;;;28.20;;
1154;SDS011;566;48.414;9.118;2023-03-01T05:54:29;43.28;;;28.20;;
1154;SDS011;566;48.414;9.118;2023-03-01T05:56:54;46.95;;;27.63;;
1154;SDS011;566;48.414;9.118;2023-03-01T05:59:21;48.95;;;27.52;;
1154;SDS011;566;48.414;9.118;2023-03-01T06:01:46;45.60;;;26.85;;
1154;SDS011;566;48.414;9.118;2023-03-01T06:04:12;52.00;;;28.65;;
1154;SDS011;566;48.414;9.118;2023-03-01T06:06:37;43.47;;;27.30;;
1154;SDS011;566;48.414;9.118;2023-03-01T06:09:04;43.35;;;25.55;;
1154;SDS011;566;48.414;9.118;2023-03-01T06:11:33;53.67;;;29.60;;
1154;SDS011;566;48.414;9.118;2023-03-01T06:13:59;47.33;;;29.08;;
1154;SDS011;566;48.414;9.118;2023-03-01T06:16:28;45.05;;;27.17;;
1154;SDS011;566;48.414;9.118;2023-03-01T06:18:59;44.60;;;27.02;;
1154;SDS011;566;48.414;9.118;2023-03-01T06:21:25;53.83;;;30.92;;
1154;SDS011;566;48.414;9.118;2023-03-01T06:23:52;47.17;;;29.30;;
1154;SDS011;566;48.414;9.118;2023-03-01T06:26:18;49.38;;;28.98;;
1154;SDS011;566;48.414;9.118;2023-03-01T06:28:43;55.13;;;32.13;;
1154;SDS011;566;48.414;9.118;2023-03-01T06:31:11;50.50;;;29.85;;
1154;SDS011;566;48.414;9.118;2023-03-01T06:33:36;52.58;;;32.38;;
1154;SDS011;566;48.414;9.118;2023-03-01T06:36:02;51.90;;;29.90;;
1154;SDS011;566;48.414;9.118;2023-03-01T06:38:28;48.55;;;29.17;;
1154;SDS011;566;48.414;9.118;2023-03-01T06:40:54;53.28;;;29.42;;
1154;SDS011;566;48.414;9.118;2023-03-01T06:43:21;52.65;;;29.50;;
1154;SDS011;566;48.414;9.118;2023-03-01T06:45:50;49.92;;;27.67;;
1154;SDS011;566;48.414;9.118;2023-03-01T06:48:16;51.28;;;29.95;;
1154;SDS011;566;48.414;9.118;2023-03-01T06:50:41;49.83;;;30.63;;
1154;SDS011;566;48.414;9.118;2023-03-01T06:53:10;49.03;;;28.83;;
1154;SDS011;566;48.414;9.118;2023-03-01T06:55:35;50.92;;;27.70;;
1154;SDS011;566;48.414;9.118;2023-03-01T06:58:02;48.90;;;29.55;;
1154;SDS011;566;48.414;9.118;2023-03-01T07:00:28;52.10;;;30.00;;
1154;SDS011;566;48.414;9.118;2023-03-01T07:02:54;52.05;;;30.25;;
1154;SDS011;566;48.414;9.118;2023-03-01T07:05:22;47.72;;;28.95;;
1154;SDS011;566;48.414;9.118;2023-03-01T07:07:48;48.75;;;27.67;;
1154;SDS011;566;48.414;9.118;2023-03-01T07:10:13;53.67;;;29.55;;
1154;SDS011;566;48.414;9.118;2023-03-01T07:12:39;47.83;;;27.75;;
1154;SDS011;566;48.414;9.118;2023-03-01T07:15:06;45.72;;;27.55;;
1154;SDS011;566;48.414;9.118;2023-03-01T07:17:34;44.67;;;27.10;;
1154;SDS011;566;48.414;9.118;2023-03-01T07:20:00;44.53;;;27.65;;
1154;SDS011;566;48.414;9.118;2023-03-01T07:22:25;50.22;;;28.95;;
1154;SDS011;566;48.414;9.118;2023-03-01T07:24:54;46.13;;;27.98;;
1154;SDS011;566;48.414;9.118;2023-03-01T07:27:19;48.13;;;27.83;;
1154;SDS011;566;48.414;9.118;2023-03-01T07:29:45;49.95;;;29.08;;
1154;SDS011;566;48.414;9.118;2023-03-01T07:32:10;45.25;;;27.08;;
1154;SDS011;566;48.414;9.118;2023-03-01T07:34:36;43.13;;;27.10;;
1154;SDS011;566;48.414;9.118;2023-03-01T07:37:02;49.80;;;30.00;;
1154;SDS011;566;48.414;9.118;2023-03-01T07:39:30;48.97;;;28.63;;
1154;SDS011;566;48.414;9.118;2023-03-01T07:41:56;45.38;;;27.98;;
1154;SDS011;566;48.414;9.118;2023-03-01T07:44:22;51.15;;;30.80;;
1154;SDS011;566;48.414;9.118;2023-03-01T07:46:47;48.97;;;27.20;;
1154;SDS011;566;48.414;9.118;2023-03-01T07:49:13;48.30;;;30.02;;
1154;SDS011;566;48.414;9.118;2023-03-01T07:51:38;48.53;;;28.40;;
1154;SDS011;566;48.414;9.118;2023-03-01T07:54:04;50.30;;;29.85;;
1154;SDS011;566;48.414;9.118;2023-03-01T07:56:32;46.97;;;28.30;;
1154;SDS011;566;48.414;9.118;2023-03-01T07:58:58;49.08;;;29.13;;
1154;SDS011;566;48.414;9.118;2023-03-01T08:01:24;46.17;;;27.83;;
1154;SDS011;566;48.414;9.118;2023-03-01T08:03:50;44.03;;;27.13;;
1154;SDS011;566;48.414;9.118;2023-03-01T08:06:16;45.10;;;26.92;;
1154;SDS011;566;48.414;9.118;2023-03-01T08:08:43;43.53;;;26.23;;
1154;SDS011;566;48.414;9.118;2023-03-01T08:11:10;43.40;;;26.35;;
1154;SDS011;566;48.414;9.118;2023-03-01T08:13:36;41.33;;;26.45;;
1154;SDS011;566;48.414;9.118;2023-03-01T08:16:03;42.10;;;26.05;;
1154;SDS011;566;48.414;9.118;2023-03-01T08:18:31;45.80;;;27.70;;
1154;SDS011;566;48.414;9.118;2023-03-01T08:21:01;46.75;;;27.58;;
1154;SDS011;566;48.414;9.118;2023-03-01T08:23:33;45.30;;;26.67;;
1154;SDS011;566;48.414;9.118;2023-03-01T08:26:15;43.47;;;25.90;;
1154;SDS011;566;48.414;9.118;2023-03-01T08:28:45;45.22;;;28.17;;
1154;SDS011;566;48.414;9.118;2023-03-01T08:33:45;50.30;;;30.27;;
1154;SDS011;566;48.414;9.118;2023-03-01T08:36:19;47.65;;;28.45;;
1154;SDS011;566;48.414;9.118;2023-03-01T08:38:49;49.88;;;27.52;;
1154;SDS011;566;48.414;9.118;2023-03-01T08:41:14;44.47;;;27.38;;
1154;SDS011;566;48.414;9.118;2023-03-01T08:43:40;45.03;;;27.75;;
1154;SDS011;566;48.414;9.118;2023-03-01T08:46:06;45.60;;;26.70;;
1154;SDS011;566;48.414;9.118;2023-03-01T08:48:31;41.72;;;26.58;;
1154;SDS011;566;48.414;9.118;2023-03-01T08:50:57;38.78;;;24.88;;
1154;SDS011;566;48.414;9.118;2023-03-01T08:53:36;37.10;;;23.75;;
1154;SDS011;566;48.414;9.118;2023-03-01T08:56:06;41.08;;;24.60;;
1154;SDS011;566;48.414;9.118;2023-03-01T08:58:32;39.55;;;25.00;;
1154;SDS011;566;48.414;9.118;2023-03-01T09:00:58;42.88;;;24.95;;
1154;SDS011;566;48.414;9.118;2023-03-01T09:03:24;41.33;;;24.92;;
1154;SDS011;566;48.414;9.118;2023-03-01T09:05:50;36.90;;;23.95;;
1154;SDS011;566;48.414;9.118;2023-03-01T09:08:17;41.00;;;26.13;;
1154;SDS011;566;48.414;9.118;2023-03-01T09:10:43;45.50;;;25.17;;
1154;SDS011;566;48.414;9.118;2023-03-01T09:13:08;40.00;;;25.20;;
1154;SDS011;566;48.414;9.118;2023-03-01T09:15:36;35.58;;;24.30;;
1154;SDS011;566;48.414;9.118;2023-03-01T09:18:02;33.95;;;22.45;;
1154;SDS011;566;48.414;9.118;2023-03-01T09:20:30;35.05;;;23.42;;
1154;SDS011;566;48.414;9.118;2023-03-01T09:22:57;37.30;;;23.25;;
1154;SDS011;566;48.414;9.118;2023-03-01T09:25:22;34.47;;;23.27;;
1154;SDS011;566;48.414;9.118;2023-03-01T09:27:51;35.42;;;23.60;;
1154;SDS011;566;48.414;9.118;2023-03-01T09:30:17;36.30;;;24.73;;
1154;SDS011;566;48.414;9.118;2023-03-01T09:32:43;36.58;;;22.92;;
1154;SDS011;566;48.414;9.118;2023-03-01T09:35:10;31.17;;;21.60;;
1154;SDS011;566;48.414;9.118;2023-03-01T09:37:39;32.83;;;22.33;;
1154;SDS011;566;48.414;9.118;2023-03-01T09:40:17;31.02;;;21.30;;
1154;SDS011;566;48.414;9.118;2023-03-01T09:43:29;30.60;;;21.70;;
1154;SDS011;566;48.414;9.118;2023-03-01T09:45:53;32.95;;;22.52;;
1154;SDS011;566;48.414;9.118;2023-03-01T09:48:27;34.70;;;22.77;;
1154;SDS011;566;48.414;9.118;2023-03-01T09:50:58;33.10;;;22.70;;
1154;SDS011;566;48.414;9.118;2023-03-01T09:53:29;31.60;;;22.13;;
1154;SDS011;566;48.414;9.118;2023-03-01T09:56:02;30.63;;;22.10;;
1154;SDS011;566;48.414;9.118;2023-03-01T09:58:47;32.03;;;22.20;;
1154;SDS011;566;48.414;9.118;2023-03-01T10:09:49;30.48;;;21.95;;
1154;SDS011;566;48.414;9.118;2023-03-01T10:12:23;32.17;;;21.67;;
1154;SDS011;566;48.414;9.118;2023-03-01T10:17:39;30.95;;;21.70;;
1154;SDS011;566;48.414;9.118;2023-03-01T10:20:28;27.33;;;19.48;;
1154;SDS011;566;48.414;9.118;2023-03-01T10:23:04;29.77;;;19.25;;
1154;SDS011;566;48.414;9.118;2023-03-01T10:28:29;30.90;;;22.30;;
1154;SDS011;566;48.414;9.118;2023-03-01T10:31:03;32.25;;;21.25;;
1154;SDS011;566;48.414;9.118;2023-03-01T10:33:30;30.80;;;20.30;;
1154;SDS011;566;48.414;9.118;2023-03-01T10:36:00;29.65;;;20.17;;
1154;SDS011;566;48.414;9.118;2023-03-01T10:38:26;31.73;;;20.35;;
1154;SDS011;566;48.414;9.118;2023-03-01T10:40:57;31.30;;;21.98;;
1154;SDS011;566;48.414;9.118;2023-03-01T10:43:24;31.85;;;20.40;;
1154;SDS011;566;48.414;9.118;2023-03-01T10:46:13;30.88;;;20.45;;
1154;SDS011;566;48.414;9.118;2023-03-01T10:48:50;30.17;;;21.67;;
1154;SDS011;566;48.414;9.118;2023-03-01T10:51:30;27.65;;;20.17;;
1154;SDS011;566;48.414;9.118;2023-03-01T10:53:56;31.45;;;20.27;;
1154;SDS011;566;48.414;9.118;2023-03-01T10:56:22;31.10;;;21.40;;
1154;SDS011;566;48.414;9.118;2023-03-01T10:58:57;29.98;;;20.17;;
1154;SDS011;566;48.414;9.118;2023-03-01T11:01:34;28.05;;;20.98;;
1154;SDS011;566;48.414;9.118;2023-03-01T11:06:28;34.80;;;21.15;;
1154;SDS011;566;48.414;9.118;2023-03-01T11:08:54;30.27;;;20.25;;
1154;SDS011;566;48.414;9.118;2023-03-01T11:11:33;31.52;;;22.23;;
1154;SDS011;566;48.414;9.118;2023-03-01T11:14:03;30.92;;;20.55;;
1154;SDS011;566;48.414;9.118;2023-03-01T11:16:37;32.65;;;22.10;;
1154;SDS011;566;48.414;9.118;2023-03-01T11:21:34;54.17;;;36.88;;
1154;SDS011;566;48.414;9.118;2023-03-01T11:24:06;53.17;;;38.75;;
1154;SDS011;566;48.414;9.118;2023-03-01T11:26:38;30.13;;;20.60;;
1154;SDS011;566;48.414;9.118;2023-03-01T11:29:21;31.23;;;21.67;;
1154;SDS011;566;48.414;9.118;2023-03-01T11:32:07;43.97;;;30.15;;
1154;SDS011;566;48.414;9.118;2023-03-01T11:34:42;27.83;;;20.27;;
1154;SDS011;566;48.414;9.118;2023-03-01T11:37:15;26.58;;;20.20;;
1154;SDS011;566;48.414;9.118;2023-03-01T11:40:21;26.35;;;19.80;;
1154;SDS011;566;48.414;9.118;2023-03-01T11:42:53;30.70;;;19.95;;
1154;SDS011;566;48.414;9.118;2023-03-01T11:45:29;28.25;;;19.50;;
1154;SDS011;566;48.414;9.118;2023-03-01T11:50:56;29.00;;;19.15;;
1154;SDS011;566;48.414;9.118;2023-03-01T11:56:42;29.73;;;20.40;;
1154;SDS011;566;48.414;9.118;2023-03-01T12:10:27;29.57;;;21.20;;
1154;SDS011;566;48.414;9.118;2023-03-01T12:16:40;28.15;;;19.58;;
1154;SDS011;566;48.414;9.118;2023-03-01T12:19:50;30.90;;;20.85;;
1154;SDS011;566;48.414;9.118;2023-03-01T12:25:03;30.45;;;21.45;;
1154;SDS011;566;48.414;9.118;2023-03-01T12:33:22;26.38;;;18.60;;
1154;SDS011;566;48.414;9.118;2023-03-01T12:36:07;26.05;;;18.55;;
1154;SDS011;566;48.414;9.118;2023-03-01T12:38:50;23.52;;;17.92;;
1154;SDS011;566;48.414;9.118;2023-03-01T12:44:15;27.85;;;18.75;;
1154;SDS011;566;48.414;9.118;2023-03-01T12:49:34;27.48;;;18.35;;
1154;SDS011;566;48.414;9.118;2023-03-01T12:54:39;25.00;;;17.75;;
1154;SDS011;566;48.414;9.118;2023-03-01T12:57:18;26.02;;;17.55;;
1154;SDS011;566;48.414;9.118;2023-03-01T13:00:02;27.20;;;17.88;;
1154;SDS011;566;48.414;9.118;2023-03-01T13:02:59;26.40;;;17.88;;
1154;SDS011;566;48.414;9.118;2023-03-01T13:08:30;27.65;;;19.10;;
1154;SDS011;566;48.414;9.118;2023-03-01T13:11:02;26.35;;;18.52;;
1154;SDS011;566;48.414;9.118;2023-03-01T13:13:30;24.40;;;17.92;;
1154;SDS011;566;48.414;9.118;2023-03-01T13:15:56;27.13;;;18.30;;
1154;SDS011;566;48.414;9.118;2023-03-01T13:20:51;24.95;;;17.75;;
1154;SDS011;566;48.414;9.118;2023-03-01T13:33:43;26.38;;;19.25;;
1154;SDS011;566;48.414;9.118;2023-03-01T13:38:57;27.25;;;18.95;;
1154;SDS011;566;48.414;9.118;2023-03-01T13:49:42;27.58;;;18.60;;
1154;SDS011;566;48.414;9.118;2023-03-01T13:52:59;24.45;;;17.92;;
1154;SDS011;566;48.414;9.118;2023-03-01T13:55:14;26.75;;;18.55;;
1154;SDS011;566;48.414;9.118;2023-03-01T13:57:44;24.70;;;17.20;;
1154;SDS011;566;48.414;9.118;2023-03-01T14:00:25;24.02;;;16.40;;
1154;SDS011;566;48.414;9.118;2023-03-01T14:03:06;25.13;;;17.45;;
1154;SDS011;566;48.414;9.118;2023-03-01T14:05:34;26.50;;;17.60;;
1154;SDS011;566;48.414;9.118;2023-03-01T14:08:01;26.02;;;17.35;;
1154;SDS011;566;48.414;9.118;2023-03-01T14:10:32;26.95;;;18.33;;
1154;SDS011;566;48.414;9.118;2023-03-01T14:13:17;28.42;;;18.25;;
1154;SDS011;566;48.414;9.118;2023-03-01T14:18:43;24.02;;;16.85;;
1154;SDS011;566;48.414;9.118;2023-03-01T14:21:19;25.13;;;16.35;;
1154;SDS011;566;48.414;9.118;2023-03-01T14:23:45;24.52;;;16.73;;
1154;SDS011;566;48.414;9.118;2023-03-01T14:26:13;24.13;;;16.13;;
1154;SDS011;566;48.414;9.118;2023-03-01T14:28:44;23.98;;;16.45;;
1154;SDS011;566;48.414;9.118;2023-03-01T14:33:59;26.02;;;18.17;;
1154;SDS011;566;48.414;9.118;2023-03-01T14:36:26;26.73;;;18.02;;
1154;SDS011;566;48.414;9.118;2023-03-01T14:38:53;21.85;;;15.88;;
1154;SDS011;566;48.414;9.118;2023-03-01T14:41:23;25.40;;;18.17;;
1154;SDS011;566;48.414;9.118;2023-03-01T14:43:52;24.75;;;17.52;;
1154;SDS011;566;48.414;9.118;2023-03-01T14:49:15;28.48;;;18.70;;
1154;SDS011;566;48.414;9.118;2023-03-01T14:51:54;28.17;;;17.02;;
1154;SDS011;566;48.414;9.118;2023-03-01T14:57:03;25.35;;;16.60;;
1154;SDS011;566;48.414;9.118;2023-03-01T14:59:29;24.10;;;17.80;;
1154;SDS011;566;48.414;9.118;2023-03-01T15:01:55;31.83;;;17.33;;
1154;SDS011;566;48.414;9.118;2023-03-01T15:04:23;25.38;;;16.45;;
1154;SDS011;566;48.414;9.118;2023-03-01T15:06:51;25.05;;;16.77;;
1154;SDS011;566;48.414;9.118;2023-03-01T15:09:19;24.38;;;16.70;;
1154;SDS011;566;48.414;9.118;2023-03-01T15:11:46;28.20;;;18.55;;
1154;SDS011;566;48.414;9.118;2023-03-01T15:14:27;29.95;;;19.40;;
1154;SDS011;566;48.414;9.118;2023-03-01T15:17:15;25.50;;;17.95;;
1154;SDS011;566;48.414;9.118;2023-03-01T15:19:48;26.08;;;17.70;;
1154;SDS011;566;48.414;9.118;2023-03-01T15:22:14;25.02;;;16.52;;
1154;SDS011;566;48.414;9.118;2023-03-01T15:24:41;25.92;;;17.00;;
1154;SDS011;566;48.414;9.118;2023-03-01T15:27:14;24.52;;;16.75;;
1154;SDS011;566;48.414;9.118;2023-03-01T15:29:46;24.75;;;17.80;;
1154;SDS011;566;48.414;9.118;2023-03-01T15:32:28;25.95;;;18.45;;
1154;SDS011;566;48.414;9.118;2023-03-01T15:34:56;26.38;;;18.63;;
1154;SDS011;566;48.414;9.118;2023-03-01T15:37:44;25.13;;;18.58;;
1154;SDS011;566;48.414;9.118;2023-03-01T15:40:25;43.33;;;28.30;;
1154;SDS011;566;48.414;9.118;2023-03-01T15:45:24;26.23;;;18.65;;
1154;SDS011;566;48.414;9.118;2023-03-01T15:47:53;26.15;;;18.05;;
1154;SDS011;566;48.414;9.118;2023-03-01T15:50:40;27.85;;;20.58;;
1154;SDS011;566;48.414;9.118;2023-03-01T15:53:13;27.20;;;19.13;;
1154;SDS011;566;48.414;9.118;2023-03-01T15:55:39;33.92;;;19.80;;
1154;SDS011;566;48.414;9.118;2023-03-01T15:58:08;28.63;;;18.13;;
1154;SDS011;566;48.414;9.118;2023-03-01T16:00:37;28.60;;;20.08;;
1154;SDS011;566;48.414;9.118;2023-03-01T16:03:04;29.88;;;19.50;;
1154;SDS011;566;48.414;9.118;2023-03-01T16:05:33;29.30;;;19.45;;
1154;SDS011;566;48.414;9.118;2023-03-01T16:08:00;31.13;;;21.05;;
1154;SDS011;566;48.414;9.118;2023-03-01T16:10:26;29.50;;;20.15;;
1154;SDS011;566;48.414;9.118;2023-03-01T16:12:53;26.33;;;18.60;;
1154;SDS011;566;48.414;9.118;2023-03-01T16:15:22;29.90;;;20.45;;
1154;SDS011;566;48.414;9.118;2023-03-01T16:17:56;29.80;;;20.25;;
1154;SDS011;566;48.414;9.118;2023-03-01T16:20:23;40.05;;;20.75;;
1154;SDS011;566;48.414;9.118;2023-03-01T16:22:49;33.55;;;20.33;;
1154;SDS011;566;48.414;9.118;2023-03-01T16:25:15;30.73;;;20.38;;
1154;SDS011;566;48.414;9.118;2023-03-01T16:27:43;31.48;;;20.90;;
1154;SDS011;566;48.414;9.118;2023-03-01T16:30:09;37.15;;;23.63;;
1154;SDS011;566;48.414;9.118;2023-03-01T16:32:43;33.42;;;21.63;;
1154;SDS011;566;48.414;9.118;2023-03-01T16:35:12;32.33;;;20.77;;
1154;SDS011;566;48.414;9.118;2023-03-01T16:37:40;32.95;;;21.67;;
1154;SDS011;566;48.414;9.118;2023-03-01T16:40:06;34.40;;;21.90;;
1154;SDS011;566;48.414;9.118;2023-03-01T16:42:42;33.42;;;21.38;;
1154;SDS011;566;48.414;9.118;2023-03-01T16:45:07;34.33;;;22.58;;
1154;SDS011;566;48.414;9.118;2023-03-01T16:47:34;36.35;;;22.95;;
1154;SDS011;566;48.414;9.118;2023-03-01T16:50:00;33.60;;;20.88;;
1154;SDS011;566;48.414;9.118;2023-03-01T16:52:25;34.75;;;21.65;;
1154;SDS011;566;48.414;9.118;2023-03-01T16:54:51;32.47;;;21.10;;
1154;SDS011;566;48.414;9.118;2023-03-01T16:57:18;36.85;;;21.90;;
1154;SDS011;566;48.414;9.118;2023-03-01T16:59:43;34.88;;;22.00;;
1154;SDS011;566;48.414;9.118;2023-03-01T17:02:10;38.38;;;22.75;;
1154;SDS011;566;48.414;9.118;2023-03-01T17:04:37;34.13;;;22.08;;
1154;SDS011;566;48.414;9.118;2023-03-01T17:07:06;36.70;;;22.92;;
1154;SDS011;566;48.414;9.118;2023-03-01T17:09:34;38.33;;;23.75;;
1154;SDS011;566;48.414;9.118;2023-03-01T17:12:01;42.10;;;23.98;;